createdAt,value
2017-09-23T00:01:18.861Z,92.10
2017-09-23T00:03:46.729Z,91.80
2017-09-23T00:06:14.597Z,91.60
2017-09-23T00:08:42.464Z,91.50
2017-09-23T00:11:10.267Z,91.50
2017-09-23T00:13:38.914Z,91.70
2017-09-23T00:16:06.886Z,91.70
2017-09-23T00:18:34.752Z,91.60
2017-09-23T00:21:02.619Z,91.60
2017-09-23T00:23:30.486Z,91.40
2017-09-23T00:25:58.354Z,93.20
2017-09-23T00:28:26.222Z,93.30
2017-09-23T00:30:54.092Z,92.60
2017-09-23T00:33:21.955Z,92.20
2017-09-23T00:35:49.823Z,92.20
2017-09-23T00:38:17.793Z,92.10
2017-09-23T00:40:45.660Z,92.00
2017-09-23T00:43:13.532Z,91.90
2017-09-23T00:45:41.395Z,91.70
2017-09-23T00:48:09.266Z,91.60
2017-09-23T00:50:37.129Z,91.90
2017-09-23T00:53:04.997Z,91.30
2017-09-23T00:55:32.863Z,91.40
2017-09-23T00:58:00.738Z,91.60
2017-09-23T01:00:28.598Z,91.40
2017-09-23T01:02:56.467Z,91.50
2017-09-23T01:05:24.337Z,91.60
2017-09-23T01:07:52.409Z,91.60
2017-09-23T01:10:20.276Z,91.50
2017-09-23T01:12:48.140Z,91.40
2017-09-23T01:15:16.012Z,91.50
2017-09-23T01:17:43.879Z,91.60
2017-09-23T01:20:11.745Z,92.10
2017-09-23T01:22:39.711Z,91.70
2017-09-23T01:25:07.579Z,92.00
2017-09-23T01:27:35.447Z,92.00
2017-09-23T01:30:03.313Z,92.00
2017-09-23T01:32:31.181Z,92.00
2017-09-23T01:34:59.048Z,91.80
2017-09-23T01:37:26.915Z,91.80
2017-09-23T01:39:54.783Z,91.90
2017-09-23T01:42:22.548Z,92.70
2017-09-23T01:44:50.415Z,92.70
2017-09-23T01:47:18.282Z,92.90
2017-09-23T01:49:46.150Z,93.20
2017-09-23T01:52:14.016Z,92.90
2017-09-23T01:54:41.883Z,94.00
2017-09-23T01:57:09.683Z,93.70
2017-09-23T01:59:38.335Z,93.30
2017-09-23T02:02:06.203Z,93.30
2017-09-23T02:04:34.070Z,93.00
2017-09-23T02:07:01.942Z,93.00
2017-09-23T02:09:29.807Z,92.90
2017-09-23T02:11:57.675Z,92.60
2017-09-23T02:14:25.539Z,92.30
2017-09-23T02:16:53.406Z,92.70
2017-09-23T02:19:21.273Z,92.90
2017-09-23T02:21:49.140Z,93.40
2017-09-23T02:24:17.008Z,92.90
2017-09-23T02:26:44.876Z,92.40
2017-09-23T02:29:12.748Z,92.20
2017-09-23T02:31:40.618Z,92.10
2017-09-23T02:34:08.477Z,91.70
2017-09-23T02:36:36.344Z,91.50
2017-09-23T02:39:04.315Z,91.50
2017-09-23T02:41:32.182Z,91.50
2017-09-23T02:44:00.050Z,91.80
2017-09-23T02:46:27.917Z,92.50
2017-09-23T02:48:55.784Z,93.60
2017-09-23T02:51:23.650Z,93.70
2017-09-23T02:53:51.519Z,93.10
2017-09-23T02:56:19.429Z,92.90
2017-09-23T02:58:48.071Z,92.60
2017-09-23T03:01:15.939Z,92.60
2017-09-23T03:03:43.806Z,92.30
2017-09-23T03:06:11.674Z,92.10
2017-09-23T03:08:39.544Z,92.00
2017-09-23T03:11:07.408Z,91.80
2017-09-23T03:13:35.275Z,92.50
2017-09-23T03:16:03.143Z,92.60
2017-09-23T03:18:31.009Z,92.60
2017-09-23T03:20:58.878Z,92.50
2017-09-23T03:23:26.746Z,92.50
2017-09-23T03:25:54.612Z,92.50
2017-09-23T03:28:22.479Z,92.30
2017-09-23T03:33:25.012Z,92.00
2017-09-23T03:35:53.508Z,91.90
2017-09-23T03:38:21.235Z,91.90
2017-09-23T03:40:48.967Z,91.90
2017-09-23T03:43:16.718Z,92.10
2017-09-23T03:45:44.438Z,92.00
2017-09-23T03:48:12.154Z,92.00
2017-09-23T03:50:40.047Z,92.50
2017-09-23T03:53:07.911Z,92.40
2017-09-23T03:55:35.778Z,92.50
2017-09-23T03:58:03.543Z,92.40
2017-09-23T04:00:31.411Z,92.60
2017-09-23T04:02:59.278Z,93.00
2017-09-23T04:05:27.145Z,93.10
2017-09-23T04:07:55.014Z,92.90
2017-09-23T04:10:22.879Z,92.80
2017-09-23T04:12:50.750Z,92.40
2017-09-23T04:15:18.617Z,92.20
2017-09-23T04:17:46.483Z,92.20
2017-09-23T04:20:14.355Z,92.40
2017-09-23T04:22:42.221Z,92.80
2017-09-23T04:25:10.042Z,92.70
2017-09-23T04:27:37.852Z,92.40
2017-09-23T04:30:05.765Z,92.30
2017-09-23T04:32:34.403Z,92.40
2017-09-23T04:35:16.401Z,92.30
2017-09-23T04:37:44.268Z,92.80
2017-09-23T04:40:12.136Z,92.90
2017-09-23T04:42:40.030Z,93.10
2017-09-23T04:45:08.690Z,93.10
2017-09-23T04:47:36.557Z,93.00
2017-09-23T04:50:04.425Z,92.70
2017-09-23T04:52:32.290Z,92.60
2017-09-23T04:55:00.159Z,92.70
2017-09-23T04:57:28.063Z,92.50
2017-09-23T04:59:56.713Z,92.10
2017-09-23T05:02:24.580Z,92.10
2017-09-23T05:04:52.448Z,91.90
2017-09-23T05:07:20.314Z,91.90
2017-09-23T05:09:51.825Z,92.60
2017-09-23T05:12:22.029Z,92.60
2017-09-23T05:14:55.990Z,92.30
2017-09-23T05:17:28.282Z,92.30
2017-09-23T05:19:59.960Z,91.90
2017-09-23T05:22:32.822Z,91.80
2017-09-23T05:25:05.072Z,91.80
2017-09-23T05:27:37.281Z,91.60
2017-09-23T05:30:09.484Z,91.60
2017-09-23T05:32:40.559Z,91.60
2017-09-23T05:35:12.211Z,91.70
2017-09-23T05:37:43.329Z,92.00
2017-09-23T05:40:11.744Z,91.90
2017-09-23T05:42:41.880Z,92.30
2017-09-23T05:45:13.474Z,92.20
2017-09-23T05:47:44.566Z,92.10
2017-09-23T05:50:16.745Z,93.40
2017-09-23T05:52:47.551Z,93.10
2017-09-23T05:55:15.535Z,92.90
2017-09-23T05:57:43.404Z,92.90
2017-09-23T06:00:11.270Z,92.70
2017-09-23T06:02:39.138Z,92.70
2017-09-23T06:05:07.005Z,92.40
2017-09-23T06:07:34.872Z,92.10
2017-09-23T06:10:02.739Z,92.30
2017-09-23T06:12:30.606Z,92.50
2017-09-23T06:14:58.473Z,92.70
2017-09-23T06:17:26.443Z,92.70
2017-09-23T06:19:54.310Z,92.20
2017-09-23T06:22:22.178Z,91.60
2017-09-23T06:24:50.045Z,91.50
2017-09-23T06:27:17.915Z,91.00
2017-09-23T06:29:45.779Z,91.50
2017-09-23T06:32:13.648Z,91.00
2017-09-23T06:34:41.514Z,90.80
2017-09-23T06:37:09.382Z,91.00
2017-09-23T06:39:37.249Z,90.50
2017-09-23T06:42:05.117Z,90.20
2017-09-23T06:44:32.984Z,89.90
2017-09-23T06:47:00.851Z,89.40
2017-09-23T06:49:28.718Z,88.70
2017-09-23T06:51:56.588Z,88.60
2017-09-23T06:54:24.454Z,88.60
2017-09-23T06:56:52.321Z,87.00
2017-09-23T06:59:20.188Z,84.20
2017-09-23T07:01:48.158Z,80.40
2017-09-23T07:04:16.025Z,76.90
2017-09-23T07:06:43.892Z,73.50
2017-09-23T07:09:11.760Z,70.60
2017-09-23T07:11:39.626Z,68.00
2017-09-23T07:14:07.494Z,65.90
2017-09-23T07:16:35.364Z,63.90
2017-09-23T07:19:03.231Z,62.30
2017-09-23T07:21:31.097Z,60.20
2017-09-23T07:24:00.298Z,59.00
2017-09-23T07:26:28.504Z,59.10
2017-09-23T07:28:57.157Z,57.00
2017-09-23T07:31:25.025Z,57.00
2017-09-23T07:33:52.993Z,56.40
2017-09-23T07:36:20.860Z,55.40
2017-09-23T07:38:48.726Z,54.60
2017-09-23T07:41:16.594Z,53.60
2017-09-23T07:43:44.465Z,53.10
2017-09-23T07:46:12.329Z,52.60
2017-09-23T07:48:40.198Z,52.00
2017-09-23T07:51:08.064Z,51.20
2017-09-23T07:53:35.931Z,50.50
2017-09-23T07:56:03.798Z,50.20
2017-09-23T07:58:31.666Z,50.10
2017-09-23T08:00:59.430Z,49.90
2017-09-23T08:03:27.401Z,49.30
2017-09-23T08:05:55.271Z,49.70
2017-09-23T08:08:23.236Z,50.40
2017-09-23T08:10:51.104Z,51.70
2017-09-23T08:13:18.974Z,52.10
2017-09-23T08:15:46.838Z,53.20
2017-09-23T08:18:14.706Z,52.90
2017-09-23T08:20:42.573Z,54.10
2017-09-23T08:23:10.441Z,55.30
2017-09-23T08:25:38.414Z,56.00
2017-09-23T08:28:06.588Z,57.10
2017-09-23T08:30:34.451Z,56.70
2017-09-23T08:33:02.320Z,58.30
2017-09-23T08:35:30.187Z,60.10
2017-09-23T08:37:58.053Z,59.40
2017-09-23T08:40:25.922Z,60.50
2017-09-23T08:42:53.787Z,62.10
2017-09-23T08:45:21.654Z,60.80
2017-09-23T08:47:49.521Z,60.60
2017-09-23T08:50:17.389Z,61.50
2017-09-23T08:52:45.257Z,63.50
2017-09-23T08:55:13.124Z,63.60
2017-09-23T08:57:40.990Z,63.60
2017-09-23T09:00:08.857Z,61.10
2017-09-23T09:02:36.724Z,63.90
2017-09-23T09:05:04.591Z,65.10
2017-09-23T09:07:32.459Z,67.00
2017-09-23T09:10:00.326Z,66.70
2017-09-23T09:12:28.199Z,67.00
2017-09-23T09:14:56.060Z,67.10
2017-09-23T09:17:23.933Z,65.20
2017-09-23T09:19:51.797Z,64.30
2017-09-23T09:22:19.667Z,65.10
2017-09-23T09:24:47.529Z,65.30
2017-09-23T09:27:15.396Z,63.30
2017-09-23T09:29:43.263Z,62.30
2017-09-23T09:32:11.137Z,64.40
2017-09-23T09:34:39.000Z,64.50
2017-09-23T09:37:06.864Z,63.30
2017-09-23T09:39:34.732Z,63.80
2017-09-23T09:42:02.599Z,63.80
2017-09-23T09:44:30.466Z,61.60
2017-09-23T09:46:58.333Z,63.70
2017-09-23T09:49:26.202Z,63.70
2017-09-23T09:51:54.069Z,62.70
2017-09-23T09:54:21.938Z,62.50
2017-09-23T09:56:49.802Z,58.40
2017-09-23T09:59:17.598Z,60.90
2017-09-23T10:01:46.253Z,63.90
2017-09-23T10:04:14.120Z,63.90
2017-09-23T10:06:42.090Z,63.20
2017-09-23T10:09:09.958Z,62.00
2017-09-23T10:11:37.824Z,61.90
2017-09-23T10:14:05.693Z,61.30
2017-09-23T10:16:33.558Z,58.60
2017-09-23T10:19:01.426Z,59.80
2017-09-23T10:21:29.397Z,59.50
2017-09-23T10:23:57.263Z,58.20
2017-09-23T10:26:25.142Z,58.70
2017-09-23T10:28:53.000Z,56.80
2017-09-23T10:31:20.869Z,56.60
2017-09-23T10:33:48.735Z,56.30
2017-09-23T10:36:16.601Z,56.00
2017-09-23T10:38:44.569Z,55.90
2017-09-23T10:41:12.440Z,55.00
2017-09-23T10:43:40.308Z,54.70
2017-09-23T10:46:08.176Z,55.20
2017-09-23T10:48:36.040Z,55.60
2017-09-23T10:51:03.907Z,57.00
2017-09-23T10:53:31.772Z,56.40
2017-09-23T10:55:59.640Z,57.40
2017-09-23T10:58:27.507Z,57.30
2017-09-23T11:00:55.375Z,56.40
2017-09-23T11:03:23.242Z,56.70
2017-09-23T11:05:51.109Z,56.30
2017-09-23T11:08:18.976Z,54.40
2017-09-23T11:10:46.844Z,54.60
2017-09-23T11:13:14.813Z,53.90
2017-09-23T11:15:42.783Z,55.90
2017-09-23T11:18:10.651Z,55.80
2017-09-23T11:20:38.518Z,59.50
2017-09-23T11:23:06.385Z,57.00
2017-09-23T11:25:34.251Z,57.70
2017-09-23T11:28:02.221Z,57.00
2017-09-23T11:30:30.089Z,53.00
2017-09-23T11:32:57.955Z,56.50
2017-09-23T11:35:25.823Z,52.50
2017-09-23T11:37:53.690Z,55.30
2017-09-23T11:40:21.558Z,57.40
2017-09-23T11:42:49.425Z,57.30
2017-09-23T11:45:17.292Z,55.10
2017-09-23T11:47:45.161Z,55.90
2017-09-23T11:50:13.028Z,54.20
2017-09-23T11:52:40.894Z,53.50
2017-09-23T11:55:08.762Z,54.30
2017-09-23T11:57:36.628Z,53.50
2017-09-23T12:00:04.497Z,51.50
2017-09-23T12:02:32.363Z,49.70
2017-09-23T12:05:00.231Z,50.50
2017-09-23T12:07:28.235Z,52.70
2017-09-23T12:09:56.887Z,52.10
2017-09-23T12:12:24.685Z,52.00
2017-09-23T12:14:53.339Z,51.20
2017-09-23T12:17:21.208Z,51.20
2017-09-23T12:19:49.073Z,49.90
2017-09-23T12:22:16.939Z,49.50
2017-09-23T12:24:44.807Z,51.60
2017-09-23T12:27:13.463Z,55.30
2017-09-23T12:29:41.182Z,59.90
2017-09-23T12:32:09.023Z,60.00
2017-09-23T12:34:36.891Z,58.90
2017-09-23T12:37:04.757Z,58.30
2017-09-23T12:39:32.830Z,57.00
2017-09-23T12:42:00.697Z,54.00
2017-09-23T12:44:28.565Z,53.70
2017-09-23T12:46:56.432Z,54.20
2017-09-23T12:49:24.299Z,54.60
2017-09-23T12:51:52.268Z,55.40
2017-09-23T12:54:20.136Z,55.90
2017-09-23T12:56:48.003Z,56.70
2017-09-23T12:59:15.871Z,58.30
2017-09-23T13:01:43.636Z,58.30
2017-09-23T13:04:11.501Z,59.20
2017-09-23T13:06:39.369Z,59.00
2017-09-23T13:09:07.237Z,61.00
2017-09-23T13:11:35.206Z,61.40
2017-09-23T13:14:03.080Z,61.20
2017-09-23T13:16:30.941Z,61.70
2017-09-23T13:18:58.809Z,63.10
2017-09-23T13:21:26.779Z,63.30
2017-09-23T13:23:54.646Z,64.10
2017-09-23T13:26:22.761Z,65.20
2017-09-23T13:28:51.404Z,64.50
2017-09-23T13:31:19.271Z,64.50
2017-09-23T13:33:47.139Z,65.10
2017-09-23T13:36:15.006Z,64.70
2017-09-23T13:38:43.078Z,64.80
2017-09-23T13:41:10.945Z,65.20
2017-09-23T13:43:38.819Z,66.30
2017-09-23T13:46:06.684Z,64.50
2017-09-23T13:48:34.551Z,64.00
2017-09-23T13:51:02.420Z,63.80
2017-09-23T13:53:30.286Z,63.50
2017-09-23T13:55:58.154Z,63.00
2017-09-23T13:58:26.019Z,63.10
2017-09-23T14:00:53.884Z,62.30
2017-09-23T14:03:21.753Z,62.80
2017-09-23T14:05:49.618Z,61.90
2017-09-23T14:08:17.485Z,60.50
2017-09-23T14:10:45.352Z,60.90
2017-09-23T14:13:13.221Z,61.40
2017-09-23T14:15:41.087Z,58.40
2017-09-23T14:18:08.955Z,59.80
2017-09-23T14:20:36.822Z,59.00
2017-09-23T14:23:04.690Z,58.50
2017-09-23T14:25:32.557Z,57.30
2017-09-23T14:28:00.424Z,57.60
2017-09-23T14:30:28.290Z,57.40
2017-09-23T14:32:56.160Z,58.30
2017-09-23T14:35:24.025Z,56.90
2017-09-23T14:37:51.892Z,57.80
2017-09-23T14:40:19.792Z,57.40
2017-09-23T14:42:48.447Z,56.80
2017-09-23T14:45:16.348Z,56.80
2017-09-23T14:47:45.001Z,56.70
2017-09-23T14:50:12.868Z,56.60
2017-09-23T14:52:40.736Z,58.20
2017-09-23T14:55:08.602Z,58.90
2017-09-23T14:57:36.470Z,58.60
2017-09-23T15:00:04.337Z,58.40
2017-09-23T15:02:32.204Z,57.70
2017-09-23T15:05:00.071Z,58.90
2017-09-23T15:07:27.943Z,59.50
2017-09-23T15:09:55.805Z,60.30
2017-09-23T15:12:23.675Z,60.10
2017-09-23T15:14:51.540Z,61.30
2017-09-23T15:17:19.408Z,60.70
2017-09-23T15:19:50.671Z,61.10
2017-09-23T15:22:21.971Z,60.70
2017-09-23T15:24:54.314Z,61.70
2017-09-23T15:27:26.156Z,61.90
2017-09-23T15:29:59.520Z,61.80
2017-09-23T15:32:31.656Z,60.70
2017-09-23T15:35:02.414Z,62.90
2017-09-23T15:37:34.380Z,63.10
2017-09-23T15:40:05.209Z,63.00
2017-09-23T15:42:37.241Z,64.20
2017-09-23T15:45:08.154Z,61.00
2017-09-23T15:47:38.556Z,63.40
2017-09-23T15:50:09.194Z,63.60
2017-09-23T15:52:39.691Z,64.60
2017-09-23T15:55:12.953Z,64.70
2017-09-23T15:57:46.310Z,64.20
2017-09-23T16:00:18.823Z,64.20
2017-09-23T16:02:51.284Z,64.40
2017-09-23T16:05:23.381Z,64.70
2017-09-23T16:07:55.047Z,65.00
2017-09-23T16:10:26.781Z,65.00
2017-09-23T16:12:58.259Z,65.20
2017-09-23T16:15:26.065Z,65.10
2017-09-23T16:17:53.933Z,67.00
2017-09-23T16:20:21.799Z,69.90
2017-09-23T16:22:49.667Z,69.70
2017-09-23T16:25:17.534Z,69.50
2017-09-23T16:27:45.402Z,70.80
2017-09-23T16:30:14.192Z,73.00
2017-09-23T16:32:42.057Z,74.10
2017-09-23T16:35:09.927Z,74.50
2017-09-23T16:37:37.793Z,75.20
2017-09-23T16:40:05.660Z,75.40
2017-09-23T16:42:33.527Z,75.70
2017-09-23T16:45:01.395Z,76.50
2017-09-23T16:47:29.261Z,77.10
2017-09-23T16:49:57.129Z,78.10
2017-09-23T16:52:24.996Z,77.70
2017-09-23T16:54:52.863Z,76.50
2017-09-23T16:57:20.741Z,76.30
2017-09-23T16:59:48.602Z,76.10
2017-09-23T17:02:16.471Z,74.70
2017-09-23T17:04:44.356Z,75.10
2017-09-23T17:07:12.307Z,76.50
2017-09-23T17:09:40.177Z,77.50
2017-09-23T17:12:08.039Z,77.80
2017-09-23T17:14:35.907Z,78.90
2017-09-23T17:17:06.495Z,80.10
2017-09-23T17:19:37.150Z,80.40
2017-09-23T17:22:07.821Z,80.70
2017-09-23T17:24:36.960Z,81.50
2017-09-23T17:27:06.432Z,81.50
2017-09-23T17:29:36.887Z,82.30
2017-09-23T17:32:07.541Z,82.20
2017-09-23T17:34:37.003Z,82.80
2017-09-23T17:37:07.435Z,83.60
2017-09-23T17:39:36.081Z,84.00
2017-09-23T17:42:04.050Z,84.00
2017-09-23T17:44:31.918Z,84.20
2017-09-23T17:46:59.785Z,84.00
2017-09-23T17:49:27.653Z,84.70
2017-09-23T17:51:55.521Z,85.10
2017-09-23T17:54:23.387Z,84.80
2017-09-23T17:56:51.256Z,85.10
2017-09-23T17:59:19.122Z,85.40
2017-09-23T18:01:47.101Z,86.00
2017-09-23T18:04:14.960Z,86.30
2017-09-23T18:06:42.827Z,86.80
2017-09-23T18:09:12.300Z,86.90
2017-09-23T18:11:40.023Z,86.70
2017-09-23T18:14:07.758Z,87.20
2017-09-23T18:16:36.351Z,86.90
2017-09-23T18:19:04.087Z,86.70
2017-09-23T18:21:31.808Z,87.10
2017-09-23T18:24:00.307Z,88.20
2017-09-23T18:26:28.026Z,88.20
2017-09-23T18:28:55.749Z,88.20
2017-09-23T18:31:23.482Z,88.30
2017-09-23T18:33:51.970Z,88.30
2017-09-23T18:36:20.499Z,87.90
2017-09-23T18:38:48.230Z,87.80
2017-09-23T18:41:15.970Z,88.00
2017-09-23T18:43:44.470Z,87.70
2017-09-23T18:46:12.428Z,87.60
2017-09-23T18:48:40.919Z,88.30
2017-09-23T18:51:09.415Z,88.40
2017-09-23T18:53:37.342Z,88.40
2017-09-23T18:56:05.078Z,88.90
2017-09-23T18:58:32.802Z,88.80
2017-09-23T19:01:00.527Z,88.90
2017-09-23T19:03:33.759Z,88.90
2017-09-23T19:06:01.483Z,88.90
2017-09-23T19:08:29.281Z,89.00
2017-09-23T19:10:58.386Z,88.90
2017-09-23T19:13:26.326Z,88.80
2017-09-23T19:15:54.063Z,89.00
2017-09-23T19:18:21.813Z,89.00
2017-09-23T19:20:49.546Z,89.10
2017-09-23T19:23:17.406Z,89.60
2017-09-23T19:25:45.904Z,89.60
2017-09-23T19:28:29.175Z,89.60
2017-09-23T19:31:02.174Z,89.10
2017-09-23T19:33:34.927Z,89.00
2017-09-23T19:36:06.227Z,88.90
2017-09-23T19:38:40.753Z,88.90
2017-09-23T19:41:08.854Z,89.60
2017-09-23T19:43:36.611Z,89.80
2017-09-23T19:46:04.343Z,89.80
2017-09-23T19:48:32.119Z,90.10
2017-09-23T19:51:00.622Z,90.60
2017-09-23T19:53:28.382Z,90.60
2017-09-23T19:55:58.073Z,90.70
2017-09-23T19:58:26.559Z,90.70
2017-09-23T20:00:55.070Z,90.70
2017-09-23T20:03:22.821Z,90.70
2017-09-23T20:05:50.547Z,90.70
2017-09-23T20:08:19.983Z,90.30
2017-09-23T20:10:47.720Z,90.30
2017-09-23T20:13:15.599Z,90.50
2017-09-23T20:15:44.899Z,90.70
2017-09-23T20:18:13.395Z,90.80
2017-09-23T20:20:41.927Z,90.80
2017-09-23T20:23:09.648Z,90.70
2017-09-23T20:25:37.427Z,90.60
2017-09-23T20:28:05.163Z,90.80
2017-09-23T20:30:33.666Z,90.60
2017-09-23T20:33:01.411Z,90.60
2017-09-23T20:35:29.901Z,90.80
2017-09-23T20:37:58.386Z,90.60
2017-09-23T20:40:26.899Z,90.60
2017-09-23T20:42:54.623Z,90.50
2017-09-23T20:45:23.211Z,90.50
2017-09-23T20:47:51.695Z,90.20
2017-09-23T20:50:20.208Z,90.20
2017-09-23T20:52:48.902Z,90.50
2017-09-23T20:55:16.632Z,90.20
2017-09-23T20:57:44.456Z,90.10
2017-09-23T21:00:12.307Z,90.20
2017-09-23T21:02:40.069Z,90.20
2017-09-23T21:05:14.979Z,90.30
2017-09-23T21:07:43.699Z,90.40
2017-09-23T21:10:11.570Z,90.40
2017-09-23T21:12:39.435Z,90.40
2017-09-23T21:15:07.301Z,90.50
2017-09-23T21:17:35.168Z,90.50
2017-09-23T21:20:03.036Z,90.60
2017-09-23T21:22:30.903Z,90.70
2017-09-23T21:24:58.770Z,90.70
2017-09-23T21:27:26.638Z,91.30
2017-09-23T21:29:54.505Z,91.30
2017-09-23T21:32:22.240Z,91.30
2017-09-23T21:34:49.982Z,91.40
2017-09-23T21:37:18.620Z,91.50
2017-09-23T21:39:46.486Z,91.50
2017-09-23T21:42:14.353Z,91.40
2017-09-23T21:44:42.220Z,91.40
2017-09-23T21:47:10.088Z,91.50
2017-09-23T21:49:37.959Z,91.20
2017-09-23T21:52:05.822Z,91.30
2017-09-23T21:54:33.689Z,91.50
2017-09-23T21:57:01.487Z,91.60
2017-09-23T21:59:32.625Z,91.80
2017-09-23T22:02:00.569Z,91.80
2017-09-23T22:04:28.436Z,91.80
2017-09-23T22:06:56.303Z,91.90
2017-09-23T22:09:24.170Z,91.90
2017-09-23T22:11:52.447Z,92.10
2017-09-23T22:14:20.314Z,91.90
2017-09-23T22:16:48.181Z,91.80
2017-09-23T22:19:16.049Z,91.90
2017-09-23T22:21:43.916Z,91.90
2017-09-23T22:24:11.886Z,92.00
2017-09-23T22:26:39.754Z,92.00
2017-09-23T22:29:07.825Z,91.80
2017-09-23T22:31:35.692Z,91.80
2017-09-23T22:34:03.561Z,91.80
2017-09-23T22:36:31.426Z,91.80
2017-09-23T22:38:59.294Z,91.80
2017-09-23T22:41:27.265Z,91.80
2017-09-23T22:43:55.137Z,91.90
2017-09-23T22:46:22.998Z,91.80
2017-09-23T22:48:50.866Z,91.70
2017-09-23T22:51:18.734Z,92.00
2017-09-23T22:53:46.600Z,92.00
2017-09-23T22:56:14.468Z,92.00
2017-09-23T22:58:42.335Z,92.30
2017-09-23T23:01:10.201Z,92.20
2017-09-23T23:03:38.075Z,92.20
2017-09-23T23:06:05.937Z,92.20
2017-09-23T23:08:33.804Z,92.20
2017-09-23T23:11:01.672Z,92.20
2017-09-23T23:13:29.538Z,92.10
2017-09-23T23:15:57.407Z,92.00
2017-09-23T23:18:25.273Z,92.00
2017-09-23T23:20:53.140Z,92.00
2017-09-23T23:23:21.011Z,92.00
2017-09-23T23:25:48.878Z,92.10
2017-09-23T23:28:16.744Z,92.00
2017-09-23T23:30:44.617Z,92.00
2017-09-23T23:33:12.481Z,92.10
2017-09-23T23:35:40.346Z,92.00
2017-09-23T23:38:08.215Z,92.10
2017-09-23T23:40:36.081Z,92.10
2017-09-23T23:43:03.946Z,92.20
2017-09-23T23:45:31.813Z,92.20
2017-09-23T23:47:59.680Z,92.10
2017-09-23T23:50:27.549Z,92.30
2017-09-23T23:52:55.414Z,92.10
2017-09-23T23:55:23.282Z,92.10
2017-09-23T23:57:51.150Z,92.30
